Sainte Marie — WDC2815 — position and weather

sailwx.info

Track history (hours):
 
Tides and Currents Weather Stations Pressure Air Temp Water Temp Dewpoint Dewpoint Depression Visibility Wind Speed Wind Dir Waves Ship Positions

Sainte Marie

Owner: Marquette Transportation Company Gulf-Inland, LLC, Jefferson, LA. More information available from US FCC via Universal Licensing System and Coast Guard Vessel Documentation Center.

Last reported at 2017-Sep-22 01:59 UTC. Time now 2017-Sep-22 10:09 UTC.
Position N 29°50' W 092°01'.

Length 266 m; draft 2.7 m.

Type: . MMSI: 366998050.

Date/timePositionNaut miles runAvg speedWind from/ knotsBaromVisibWave heightAir tempDewpointWater temp
2017-Sep-22 01:59N 29°50' W 092°01'2 4.3
2017-Sep-22 01:30N 29°49' W 092°03'2 4.6
2017-Sep-22 01:01N 29°48' W 092°05'2 4.8
2017-Sep-22 00:30N 29°47' W 092°08'2 4.4
2017-Sep-22 00:00N 29°47' W 092°10'2 4.4
2017-Sep-21 23:30N 29°47' W 092°13'2 3.2
2017-Sep-21 23:00N 29°48' W 092°14'2 4.4
2017-Sep-21 22:30N 29°49' W 092°17'2 4.5
2017-Sep-21 22:00N 29°50' W 092°19'37 4.2
2017-Sep-21 13:05N 29°56' W 093°01'0 4.1
2017-Sep-21 13:00N 29°56' W 093°02'2 4.0
2017-Sep-21 12:30N 29°56' W 093°04'1 3.0
2017-Sep-21 12:00N 29°56' W 093°06'2 3.5
2017-Sep-21 11:30N 29°56' W 093°08'2 4.0
2017-Sep-21 11:00N 29°57' W 093°10'2 4.3
2017-Sep-21 10:30N 29°58' W 093°12'2 3.8
2017-Sep-21 10:00N 29°60' W 093°13'2 3.6
2017-Sep-21 09:31N 30°01' W 093°14'2 3.7
2017-Sep-21 09:00N 30°02' W 093°16'2 3.3
2017-Sep-21 08:30N 30°04' W 093°16'2 3.5
2017-Sep-21 08:00N 30°05' W 093°18'1 1.4
2017-Sep-21 07:30N 30°06' W 093°18'1 2.4
2017-Sep-21 07:00N 30°05' W 093°19'2 4.6
2017-Sep-21 06:30N 30°04' W 093°21'1 1.6
2017-Sep-21 06:00N 30°04' W 093°22'1 1.4
2017-Sep-21 05:30N 30°04' W 093°21'0 0.0
2017-Sep-21 05:01N 30°04' W 093°21'0 0.0
2017-Sep-21 04:30N 30°04' W 093°21'0 0.0
2017-Sep-21 04:00N 30°04' W 093°21'1 1.3
2017-Sep-21 03:30N 30°04' W 093°22'0 0.1
2017-Sep-21 03:00N 30°04' W 093°22'0 0.1
2017-Sep-21 02:30N 30°04' W 093°22'0 0.0
2017-Sep-21 02:01N 30°04' W 093°22'0 0.3
2017-Sep-21 01:30N 30°04' W 093°22'0 0.5
2017-Sep-21 01:01N 30°04' W 093°22'1 1.9
2017-Sep-21 00:30N 30°04' W 093°23'2 5.0
2017-Sep-21 00:00N 30°04' W 093°26'2 4.8
2017-Sep-20 23:30N 30°04' W 093°29'2 4.8
2017-Sep-20 23:00N 30°04' W 093°32'3 5.1
2017-Sep-20 22:30N 30°04' W 093°35'3 5.0
2017-Sep-20 22:01N 30°04' W 093°38'2 4.9
2017-Sep-20 21:30N 30°03' W 093°40'71 3.9
2017-Sep-20 03:32N 29°29' W 094°52'0 6.0
2017-Sep-20 03:29N 29°29' W 094°52'2 5.2
2017-Sep-20 03:00N 29°31' W 094°53'3 5.5
2017-Sep-20 02:30N 29°34' W 094°55'3 5.6
2017-Sep-20 02:00N 29°36' W 094°57'3 5.8
2017-Sep-20 01:30N 29°39' W 094°58'3 5.9
2017-Sep-20 01:00N 29°42' W 094°59'3 5.2
2017-Sep-20 00:27N 29°44' W 095°02'2 5.3
2017-Sep-19 23:59N 29°45' W 095°04'2 1.0
2017-Sep-19 21:52N 29°47' W 095°04'1 0.1
2017-Sep-19 17:32N 29°47' W 095°05'0 0.4
2017-Sep-19 17:30N 29°47' W 095°05'1 1.1
2017-Sep-19 16:56N 29°46' W 095°05'1 1.2
2017-Sep-19 16:27N 29°47' W 095°05'2 4.4
2017-Sep-19 15:55N 29°45' W 095°06'0 0.0
2017-Sep-19 15:08N 29°45' W 095°06'0 0.0
2017-Sep-19 14:50N 29°45' W 095°06'1 1.0
2017-Sep-19 13:55N 29°45' W 095°06'2 0.6
2017-Sep-19 10:37N 29°47' W 095°04'0 0.1
2017-Sep-19 06:05N 29°47' W 095°04'0 4.7
2017-Sep-19 05:59N 29°47' W 095°05'1 0.4
2017-Sep-19 04:20N 29°46' W 095°05'1 0.5
2017-Sep-19 03:10N 29°47' W 095°05'0 0.1
2017-Sep-18 23:06N 29°46' W 095°05'1 2.6
2017-Sep-18 22:52N 29°47' W 095°05'1 1.6
2017-Sep-18 22:30N 29°47' W 095°04'1 0.7
2017-Sep-18 21:41N 29°47' W 095°05'0 1.5
2017-Sep-18 21:30N 29°47' W 095°05'1 1.0
2017-Sep-18 20:53N 29°46' W 095°05'1 2.0
2017-Sep-18 20:29N 29°47' W 095°05'1 1.9
2017-Sep-18 20:01N 29°46' W 095°05'2 4.9
2017-Sep-18 19:30N 29°44' W 095°03'2 4.8
2017-Sep-18 19:00N 29°42' W 095°01'3 5.6
2017-Sep-18 18:30N 29°40' W 094°59'3 6.1
2017-Sep-18 18:00N 29°38' W 094°58'3 6.0
2017-Sep-18 17:30N 29°35' W 094°56'3 6.5
2017-Sep-18 17:00N 29°32' W 094°54'68 4.1
2017-Sep-18 00:14N 30°03' W 093°44'1 5.1
2017-Sep-18 00:00N 30°03' W 093°43'2 4.8
2017-Sep-17 23:30N 30°04' W 093°40'2 4.8
2017-Sep-17 23:01N 30°04' W 093°37'2 4.4
2017-Sep-17 22:30N 30°04' W 093°34'2 4.3
2017-Sep-17 22:00N 30°04' W 093°32'2 4.5
2017-Sep-17 21:30N 30°04' W 093°29'2 4.4
2017-Sep-17 21:00N 30°04' W 093°27'2 4.1
2017-Sep-17 20:30N 30°04' W 093°24'2 4.4
2017-Sep-17 20:01N 30°04' W 093°22'2 3.4
2017-Sep-17 19:30N 30°05' W 093°20'2 4.1
2017-Sep-17 19:00N 30°06' W 093°19'1 2.9
2017-Sep-17 18:30N 30°05' W 093°17'1 1.8
2017-Sep-17 18:00N 30°05' W 093°17'0 0.0
2017-Sep-17 17:30N 30°05' W 093°17'0 0.5
2017-Sep-17 17:00N 30°04' W 093°16'2 3.8
2017-Sep-17 16:31N 30°03' W 093°16'1 2.0
2017-Sep-17 16:00N 30°02' W 093°15'0 0.2
2017-Sep-17 15:30N 30°02' W 093°15'2 3.2
2017-Sep-17 15:00N 30°01' W 093°14'1 2.2
2017-Sep-17 14:30N 29°60' W 093°13'1 1.2
2017-Sep-17 14:00N 29°59' W 093°13'1 2.3
2017-Sep-17 13:30N 29°58' W 093°12'0 0.5
2017-Sep-17 13:00N 29°58' W 093°11'0 0.1
2017-Sep-17 12:31N 29°58' W 093°11'0 0.4
2017-Sep-17 12:00N 29°58' W 093°11'2 4.1
2017-Sep-17 11:31N 29°56' W 093°10'2 4.9
2017-Sep-17 11:00N 29°56' W 093°07'40 3.4
2017-Sep-16 23:09N 29°51' W 092°21'1 4.3
2017-Sep-16 22:59N 29°51' W 092°20'2 4.1
2017-Sep-16 22:30N 29°50' W 092°18'2 4.2
2017-Sep-16 22:00N 29°49' W 092°16'2 4.6
2017-Sep-16 21:30N 29°48' W 092°14'2 4.4
2017-Sep-16 21:01N 29°47' W 092°12'1 1.0
2017-Sep-16 20:30N 29°47' W 092°11'2 3.2
2017-Sep-16 20:01N 29°47' W 092°09'2 4.9
2017-Sep-16 19:31N 29°48' W 092°06'2 4.8
2017-Sep-16 19:00N 29°49' W 092°04'  
2017-Sep-13 17:43N 29°49' W 092°02'1 5.5
2017-Sep-13 17:30N 29°49' W 092°04'3 5.6
2017-Sep-13 17:00N 29°48' W 092°07'3 5.8
2017-Sep-13 16:30N 29°47' W 092°10'2 4.7
2017-Sep-13 16:00N 29°47' W 092°12'2 4.6
2017-Sep-13 15:31N 29°48' W 092°15'0 0.3
2017-Sep-13 15:00N 29°48' W 092°15'2 4.2
2017-Sep-13 14:30N 29°49' W 092°17'3 5.5
2017-Sep-13 14:00N 29°51' W 092°20'34 5.3
2017-Sep-13 07:31N 29°56' W 092°59'0 5.0
2017-Sep-13 07:25N 29°56' W 092°59'2 4.9
2017-Sep-13 07:00N 29°56' W 093°02'2 4.8
2017-Sep-13 06:30N 29°56' W 093°04'2 4.7
2017-Sep-13 06:00N 29°56' W 093°07'2 4.3
2017-Sep-13 05:30N 29°56' W 093°10'3 5.1
2017-Sep-13 05:01N 29°58' W 093°12'3 5.1
2017-Sep-13 04:30N 30°00' W 093°13'2 3.5
2017-Sep-13 04:00N 30°02' W 093°14'1 2.3
2017-Sep-13 03:30N 30°02' W 093°15'2 4.1
2017-Sep-13 03:00N 30°04' W 093°16'2 4.2
2017-Sep-13 02:30N 30°06' W 093°18'1 1.8
2017-Sep-13 02:00N 30°06' W 093°19'2 4.6
2017-Sep-13 01:30N 30°04' W 093°21'3 5.1
2017-Sep-13 01:00N 30°04' W 093°24'3 6.6
2017-Sep-13 00:30N 30°04' W 093°27'3 6.7
2017-Sep-13 00:00N 30°04' W 093°31'3 6.6
2017-Sep-12 23:30N 30°04' W 093°35'3 6.1
2017-Sep-12 23:00N 30°04' W 093°39'73 3.9
2017-Sep-12 04:18N 29°24' W 094°49'3 6.5
2017-Sep-12 03:47N 29°27' W 094°50'2 7.1
2017-Sep-12 03:30N 29°28' W 094°51'3 6.2
2017-Sep-12 03:00N 29°31' W 094°53'3 6.1
2017-Sep-12 02:30N 29°34' W 094°55'3 6.4
2017-Sep-12 02:00N 29°36' W 094°57'  
Track history (hours):
 
Tides and Currents Weather Stations Pressure Air Temp Water Temp Dewpoint Dewpoint Depression Visibility Wind Speed Wind Dir Waves Ship Positions

Sainte Marie

Owner: Marquette Transportation Company Gulf-Inland, LLC, Jefferson, LA. More information available from US FCC via Universal Licensing System and Coast Guard Vessel Documentation Center.

Last reported at 2017-Sep-22 01:59 UTC. Time now 2017-Sep-22 10:09 UTC.
Position N 29°50' W 092°01'.

Length 266 m; draft 2.7 m.

Type: . MMSI: 366998050.

Date/timePositionNaut miles runAvg speedWind from/ knotsBaromVisibWave heightAir tempDewpointWater temp
2017-Sep-22 01:59N 29°50' W 092°01'2 4.3
2017-Sep-22 01:30N 29°49' W 092°03'2 4.6
2017-Sep-22 01:01N 29°48' W 092°05'2 4.8
2017-Sep-22 00:30N 29°47' W 092°08'2 4.4
2017-Sep-22 00:00N 29°47' W 092°10'2 4.4
2017-Sep-21 23:30N 29°47' W 092°13'2 3.2
2017-Sep-21 23:00N 29°48' W 092°14'2 4.4
2017-Sep-21 22:30N 29°49' W 092°17'2 4.5
2017-Sep-21 22:00N 29°50' W 092°19'37 4.2
2017-Sep-21 13:05N 29°56' W 093°01'0 4.1
2017-Sep-21 13:00N 29°56' W 093°02'2 4.0
2017-Sep-21 12:30N 29°56' W 093°04'1 3.0
2017-Sep-21 12:00N 29°56' W 093°06'2 3.5
2017-Sep-21 11:30N 29°56' W 093°08'2 4.0
2017-Sep-21 11:00N 29°57' W 093°10'2 4.3
2017-Sep-21 10:30N 29°58' W 093°12'2 3.8
2017-Sep-21 10:00N 29°60' W 093°13'2 3.6
2017-Sep-21 09:31N 30°01' W 093°14'2 3.7
2017-Sep-21 09:00N 30°02' W 093°16'2 3.3
2017-Sep-21 08:30N 30°04' W 093°16'2 3.5
2017-Sep-21 08:00N 30°05' W 093°18'1 1.4
2017-Sep-21 07:30N 30°06' W 093°18'1 2.4
2017-Sep-21 07:00N 30°05' W 093°19'2 4.6
2017-Sep-21 06:30N 30°04' W 093°21'1 1.6
2017-Sep-21 06:00N 30°04' W 093°22'1 1.4
2017-Sep-21 05:30N 30°04' W 093°21'0 0.0
2017-Sep-21 05:01N 30°04' W 093°21'0 0.0
2017-Sep-21 04:30N 30°04' W 093°21'0 0.0
2017-Sep-21 04:00N 30°04' W 093°21'1 1.3
2017-Sep-21 03:30N 30°04' W 093°22'0 0.1
2017-Sep-21 03:00N 30°04' W 093°22'0 0.1
2017-Sep-21 02:30N 30°04' W 093°22'0 0.0
2017-Sep-21 02:01N 30°04' W 093°22'0 0.3
2017-Sep-21 01:30N 30°04' W 093°22'0 0.5
2017-Sep-21 01:01N 30°04' W 093°22'1 1.9
2017-Sep-21 00:30N 30°04' W 093°23'2 5.0
2017-Sep-21 00:00N 30°04' W 093°26'2 4.8
2017-Sep-20 23:30N 30°04' W 093°29'2 4.8
2017-Sep-20 23:00N 30°04' W 093°32'3 5.1
2017-Sep-20 22:30N 30°04' W 093°35'3 5.0
2017-Sep-20 22:01N 30°04' W 093°38'2 4.9
2017-Sep-20 21:30N 30°03' W 093°40'71 3.9
2017-Sep-20 03:32N 29°29' W 094°52'0 6.0
2017-Sep-20 03:29N 29°29' W 094°52'2 5.2
2017-Sep-20 03:00N 29°31' W 094°53'3 5.5
2017-Sep-20 02:30N 29°34' W 094°55'3 5.6
2017-Sep-20 02:00N 29°36' W 094°57'3 5.8
2017-Sep-20 01:30N 29°39' W 094°58'3 5.9
2017-Sep-20 01:00N 29°42' W 094°59'3 5.2
2017-Sep-20 00:27N 29°44' W 095°02'2 5.3
2017-Sep-19 23:59N 29°45' W 095°04'2 1.0
2017-Sep-19 21:52N 29°47' W 095°04'1 0.1
2017-Sep-19 17:32N 29°47' W 095°05'0 0.4
2017-Sep-19 17:30N 29°47' W 095°05'1 1.1
2017-Sep-19 16:56N 29°46' W 095°05'1 1.2
2017-Sep-19 16:27N 29°47' W 095°05'2 4.4
2017-Sep-19 15:55N 29°45' W 095°06'0 0.0
2017-Sep-19 15:08N 29°45' W 095°06'0 0.0
2017-Sep-19 14:50N 29°45' W 095°06'1 1.0
2017-Sep-19 13:55N 29°45' W 095°06'2 0.6
2017-Sep-19 10:37N 29°47' W 095°04'0 0.1
2017-Sep-19 06:05N 29°47' W 095°04'0 4.7
2017-Sep-19 05:59N 29°47' W 095°05'1 0.4
2017-Sep-19 04:20N 29°46' W 095°05'1 0.5
2017-Sep-19 03:10N 29°47' W 095°05'0 0.1
2017-Sep-18 23:06N 29°46' W 095°05'1 2.6
2017-Sep-18 22:52N 29°47' W 095°05'1 1.6
2017-Sep-18 22:30N 29°47' W 095°04'1 0.7
2017-Sep-18 21:41N 29°47' W 095°05'0 1.5
2017-Sep-18 21:30N 29°47' W 095°05'1 1.0
2017-Sep-18 20:53N 29°46' W 095°05'1 2.0
2017-Sep-18 20:29N 29°47' W 095°05'1 1.9
2017-Sep-18 20:01N 29°46' W 095°05'2 4.9
2017-Sep-18 19:30N 29°44' W 095°03'2 4.8
2017-Sep-18 19:00N 29°42' W 095°01'3 5.6
2017-Sep-18 18:30N 29°40' W 094°59'3 6.1
2017-Sep-18 18:00N 29°38' W 094°58'3 6.0
2017-Sep-18 17:30N 29°35' W 094°56'3 6.5
2017-Sep-18 17:00N 29°32' W 094°54'68 4.1
2017-Sep-18 00:14N 30°03' W 093°44'1 5.1
2017-Sep-18 00:00N 30°03' W 093°43'2 4.8
2017-Sep-17 23:30N 30°04' W 093°40'2 4.8
2017-Sep-17 23:01N 30°04' W 093°37'2 4.4
2017-Sep-17 22:30N 30°04' W 093°34'2 4.3
2017-Sep-17 22:00N 30°04' W 093°32'2 4.5
2017-Sep-17 21:30N 30°04' W 093°29'2 4.4
2017-Sep-17 21:00N 30°04' W 093°27'2 4.1
2017-Sep-17 20:30N 30°04' W 093°24'2 4.4
2017-Sep-17 20:01N 30°04' W 093°22'2 3.4
2017-Sep-17 19:30N 30°05' W 093°20'2 4.1
2017-Sep-17 19:00N 30°06' W 093°19'1 2.9
2017-Sep-17 18:30N 30°05' W 093°17'1 1.8
2017-Sep-17 18:00N 30°05' W 093°17'0 0.0
2017-Sep-17 17:30N 30°05' W 093°17'0 0.5
2017-Sep-17 17:00N 30°04' W 093°16'2 3.8
2017-Sep-17 16:31N 30°03' W 093°16'1 2.0
2017-Sep-17 16:00N 30°02' W 093°15'0 0.2
2017-Sep-17 15:30N 30°02' W 093°15'2 3.2
2017-Sep-17 15:00N 30°01' W 093°14'1 2.2
2017-Sep-17 14:30N 29°60' W 093°13'1 1.2
2017-Sep-17 14:00N 29°59' W 093°13'1 2.3
2017-Sep-17 13:30N 29°58' W 093°12'0 0.5
2017-Sep-17 13:00N 29°58' W 093°11'0 0.1
2017-Sep-17 12:31N 29°58' W 093°11'0 0.4
2017-Sep-17 12:00N 29°58' W 093°11'2 4.1
2017-Sep-17 11:31N 29°56' W 093°10'2 4.9
2017-Sep-17 11:00N 29°56' W 093°07'40 3.4
2017-Sep-16 23:09N 29°51' W 092°21'1 4.3
2017-Sep-16 22:59N 29°51' W 092°20'2 4.1
2017-Sep-16 22:30N 29°50' W 092°18'2 4.2
2017-Sep-16 22:00N 29°49' W 092°16'2 4.6
2017-Sep-16 21:30N 29°48' W 092°14'2 4.4
2017-Sep-16 21:01N 29°47' W 092°12'1 1.0
2017-Sep-16 20:30N 29°47' W 092°11'2 3.2
2017-Sep-16 20:01N 29°47' W 092°09'2 4.9
2017-Sep-16 19:31N 29°48' W 092°06'2 4.8
2017-Sep-16 19:00N 29°49' W 092°04'  
2017-Sep-13 17:43N 29°49' W 092°02'1 5.5
2017-Sep-13 17:30N 29°49' W 092°04'3 5.6
2017-Sep-13 17:00N 29°48' W 092°07'3 5.8
2017-Sep-13 16:30N 29°47' W 092°10'2 4.7
2017-Sep-13 16:00N 29°47' W 092°12'2 4.6
2017-Sep-13 15:31N 29°48' W 092°15'0 0.3
2017-Sep-13 15:00N 29°48' W 092°15'2 4.2
2017-Sep-13 14:30N 29°49' W 092°17'3 5.5
2017-Sep-13 14:00N 29°51' W 092°20'34 5.3
2017-Sep-13 07:31N 29°56' W 092°59'0 5.0
2017-Sep-13 07:25N 29°56' W 092°59'2 4.9
2017-Sep-13 07:00N 29°56' W 093°02'2 4.8
2017-Sep-13 06:30N 29°56' W 093°04'2 4.7
2017-Sep-13 06:00N 29°56' W 093°07'2 4.3
2017-Sep-13 05:30N 29°56' W 093°10'3 5.1
2017-Sep-13 05:01N 29°58' W 093°12'3 5.1
2017-Sep-13 04:30N 30°00' W 093°13'2 3.5
2017-Sep-13 04:00N 30°02' W 093°14'1 2.3
2017-Sep-13 03:30N 30°02' W 093°15'2 4.1
2017-Sep-13 03:00N 30°04' W 093°16'2 4.2
2017-Sep-13 02:30N 30°06' W 093°18'1 1.8
2017-Sep-13 02:00N 30°06' W 093°19'2 4.6
2017-Sep-13 01:30N 30°04' W 093°21'3 5.1
2017-Sep-13 01:00N 30°04' W 093°24'3 6.6
2017-Sep-13 00:30N 30°04' W 093°27'3 6.7
2017-Sep-13 00:00N 30°04' W 093°31'3 6.6
2017-Sep-12 23:30N 30°04' W 093°35'3 6.1
2017-Sep-12 23:00N 30°04' W 093°39'73 3.9
2017-Sep-12 04:18N 29°24' W 094°49'3 6.5
2017-Sep-12 03:47N 29°27' W 094°50'2 7.1
2017-Sep-12 03:30N 29°28' W 094°51'3 6.2
2017-Sep-12 03:00N 29°31' W 094°53'3 6.1
2017-Sep-12 02:30N 29°34' W 094°55'3 6.4
2017-Sep-12 02:00N 29°36' W 094°57'  

Dump ship's entire track history